Terminal Aerodrome Forecast
Issued by NWS St Louis, MO

Home | Current Version | Previous Version | Graphics & Text | Print | Product List | Glossary On
Versions: 1 2 3 4 5 6 7 8 9 10 11 12 13 14 15 16 17 18 19 20 21 22 23 24
000
FTUS43 KLSX 281132
TAFSTL
TAF
KSTL 281132Z 2812/2918 13004KT P6SM SCT250
     FM281700 17005KT P6SM SCT035
     FM282000 21005KT P6SM VCTS SCT040CB BKN250
     FM290300 14003KT P6SM SCT250
     FM291200 23005KT P6SM BKN250=

USA.gov is the U.S. government's official web portal to all federal, state and local government web resources and services.